createdAt,value
2018-09-10T00:01:54.880Z,56.20
2018-09-10T00:04:24.859Z,56.30
2018-09-10T00:06:54.910Z,56.60
2018-09-10T00:09:24.931Z,56.50
2018-09-10T00:11:54.876Z,57.10
2018-09-10T00:14:24.831Z,57.10
2018-09-10T00:16:54.771Z,57.20
2018-09-10T00:19:24.813Z,57.60
2018-09-10T00:21:54.734Z,57.60
2018-09-10T00:24:24.761Z,57.80
2018-09-10T00:26:54.666Z,58.20
2018-09-10T00:29:24.638Z,58.30
2018-09-10T00:31:54.614Z,58.30
2018-09-10T00:34:24.588Z,58.80
2018-09-10T00:36:54.564Z,58.90
2018-09-10T00:39:24.492Z,58.70
2018-09-10T00:41:54.459Z,58.90
2018-09-10T00:44:24.491Z,58.60
2018-09-10T00:46:54.814Z,58.30
2018-09-10T00:49:24.764Z,58.20
2018-09-10T00:51:54.674Z,57.80
2018-09-10T00:54:24.734Z,57.60
2018-09-10T00:56:54.639Z,57.30
2018-09-10T00:59:24.624Z,57.00
2018-09-10T01:01:54.632Z,57.50
2018-09-10T01:04:24.564Z,57.60
2018-09-10T01:06:54.626Z,57.60
2018-09-10T01:09:24.575Z,57.80
2018-09-10T01:11:54.580Z,57.70
2018-09-10T01:14:24.574Z,57.80
2018-09-10T01:16:54.582Z,57.60
2018-09-10T01:19:24.590Z,57.80
2018-09-10T01:21:54.599Z,58.20
2018-09-10T01:24:24.587Z,58.10
2018-09-10T01:26:54.560Z,58.50
2018-09-10T01:29:24.477Z,58.50
2018-09-10T01:31:54.494Z,58.40
2018-09-10T01:34:30.542Z,58.20
2018-09-10T01:37:00.580Z,58.10
2018-09-10T01:39:30.524Z,57.70
2018-09-10T01:42:00.470Z,57.50
2018-09-10T01:44:30.469Z,57.50
2018-09-10T01:47:00.476Z,57.40
2018-09-10T01:49:30.463Z,57.50
2018-09-10T01:52:00.560Z,58.10
2018-09-10T01:54:37.253Z,57.20
2018-09-10T01:57:07.444Z,58.40
2018-09-10T01:59:37.484Z,58.40
2018-09-10T02:02:07.595Z,58.80
2018-09-10T02:04:37.652Z,59.70
2018-09-10T02:07:07.727Z,59.30
2018-09-10T02:09:37.748Z,59.10
2018-09-10T02:12:11.813Z,59.00
2018-09-10T02:14:41.821Z,59.50
2018-09-10T02:17:11.971Z,58.50
2018-09-10T02:19:42.012Z,58.50
2018-09-10T02:22:12.015Z,58.10
2018-09-10T02:24:41.984Z,59.10
2018-09-10T02:27:11.931Z,58.60
2018-09-10T02:29:41.959Z,58.30
2018-09-10T02:32:11.885Z,58.10
2018-09-10T02:34:41.846Z,58.00
2018-09-10T02:37:11.783Z,58.40
2018-09-10T02:39:42.075Z,57.50
2018-09-10T02:42:12.112Z,57.20
2018-09-10T02:44:42.113Z,57.30
2018-09-10T02:47:12.066Z,58.60
2018-09-10T02:49:41.992Z,58.70
2018-09-10T02:52:11.899Z,58.70
2018-09-10T02:54:42.021Z,58.70
2018-09-10T02:57:11.930Z,58.80
2018-09-10T02:59:41.902Z,58.70
2018-09-10T03:02:11.859Z,58.80
2018-09-10T03:04:44.215Z,58.70
2018-09-10T03:07:15.607Z,57.90
2018-09-10T03:09:45.888Z,58.60
2018-09-10T03:12:16.117Z,58.70
2018-09-10T03:14:46.199Z,58.70
2018-09-10T03:17:16.552Z,58.70
2018-09-10T03:19:46.522Z,58.30
2018-09-10T03:22:16.751Z,58.80
2018-09-10T03:24:46.913Z,58.80
2018-09-10T03:27:16.905Z,58.70
2018-09-10T03:29:47.232Z,58.60
2018-09-10T03:32:17.364Z,59.00
2018-09-10T03:34:47.380Z,58.90
2018-09-10T03:37:17.369Z,59.40
2018-09-10T03:39:47.339Z,59.70
2018-09-10T03:42:17.366Z,60.40
2018-09-10T03:44:47.345Z,60.10
2018-09-10T03:47:17.398Z,59.70
2018-09-10T03:49:47.315Z,59.50
2018-09-10T03:52:17.446Z,60.30
2018-09-10T03:54:47.413Z,61.90
2018-09-10T03:57:17.401Z,62.20
2018-09-10T03:59:47.395Z,62.80
2018-09-10T04:02:17.458Z,62.10
2018-09-10T04:04:53.807Z,61.90
2018-09-10T04:07:23.767Z,61.70
2018-09-10T04:09:53.746Z,61.40
2018-09-10T04:12:23.791Z,60.50
2018-09-10T04:14:53.819Z,60.40
2018-09-10T04:17:23.872Z,60.40
2018-09-10T04:19:58.204Z,60.40
2018-09-10T04:22:28.546Z,60.40
2018-09-10T04:24:58.584Z,61.80
2018-09-10T04:27:28.793Z,62.10
2018-09-10T04:29:58.771Z,61.70
2018-09-10T04:32:28.802Z,61.60
2018-09-10T04:35:05.757Z,61.30
2018-09-10T04:37:35.816Z,62.20
2018-09-10T04:40:05.954Z,62.10
2018-09-10T04:42:36.028Z,61.80
2018-09-10T04:45:06.343Z,62.50
2018-09-10T04:47:36.298Z,61.60
2018-09-10T04:50:07.253Z,61.40
2018-09-10T04:52:37.255Z,61.40
2018-09-10T04:55:07.309Z,61.70
2018-09-10T04:57:37.277Z,62.70
2018-09-10T05:00:07.326Z,63.00
2018-09-10T05:02:37.375Z,63.00
2018-09-10T05:05:07.452Z,63.00
2018-09-10T05:07:37.496Z,63.00
2018-09-10T05:10:07.651Z,63.90
2018-09-10T05:12:37.608Z,64.10
2018-09-10T05:15:07.684Z,64.00
2018-09-10T05:17:37.635Z,63.40
2018-09-10T05:20:07.637Z,63.10
2018-09-10T05:22:37.827Z,63.20
2018-09-10T05:25:07.767Z,63.30
2018-09-10T05:27:37.975Z,62.70
2018-09-10T05:30:07.926Z,62.50
2018-09-10T05:32:37.883Z,63.40
2018-09-10T05:35:07.915Z,62.70
2018-09-10T05:37:37.991Z,62.30
2018-09-10T05:40:09.610Z,62.50
2018-09-10T05:42:39.743Z,62.50
2018-09-10T05:45:11.750Z,62.20
2018-09-10T05:47:42.008Z,62.00
2018-09-10T05:50:12.711Z,61.70
2018-09-10T05:52:42.815Z,61.50
2018-09-10T05:55:12.839Z,61.10
2018-09-10T05:57:42.799Z,60.70
2018-09-10T06:00:12.742Z,60.40
2018-09-10T06:02:42.795Z,60.10
2018-09-10T06:05:12.839Z,59.30
2018-09-10T06:07:42.748Z,59.40
2018-09-10T06:10:12.846Z,58.60
2018-09-10T06:12:43.031Z,57.70
2018-09-10T06:15:12.985Z,57.10
2018-09-10T06:17:43.989Z,56.30
2018-09-10T06:20:13.995Z,55.70
2018-09-10T06:22:43.994Z,56.30
2018-09-10T06:25:14.071Z,55.80
2018-09-10T06:27:44.144Z,55.40
2018-09-10T06:30:14.221Z,55.40
2018-09-10T06:32:44.322Z,54.60
2018-09-10T06:35:14.338Z,54.30
2018-09-10T06:37:44.427Z,53.40
2018-09-10T06:40:14.854Z,52.10
2018-09-10T06:42:44.939Z,51.70
2018-09-10T06:45:14.881Z,51.00
2018-09-10T06:47:44.898Z,50.40
2018-09-10T06:50:15.037Z,50.10
2018-09-10T06:52:45.043Z,49.40
2018-09-10T06:55:15.077Z,49.30
2018-09-10T06:57:45.057Z,48.70
2018-09-10T07:00:15.103Z,48.90
2018-09-10T07:02:45.094Z,47.50
2018-09-10T07:05:15.176Z,47.50
2018-09-10T07:07:45.240Z,47.40
2018-09-10T07:10:16.659Z,46.90
2018-09-10T07:12:46.775Z,46.60
2018-09-10T07:15:16.854Z,45.80
2018-09-10T07:17:46.978Z,45.50
2018-09-10T07:20:17.056Z,45.00
2018-09-10T07:22:47.090Z,44.90
2018-09-10T07:25:17.089Z,45.00
2018-09-10T07:27:47.148Z,45.00
2018-09-10T07:30:17.200Z,45.10
2018-09-10T07:32:47.229Z,45.30
2018-09-10T07:35:27.971Z,43.80
2018-09-10T07:37:59.229Z,43.70
2018-09-10T07:40:29.987Z,43.30
2018-09-10T07:43:00.051Z,42.90
2018-09-10T07:45:34.818Z,42.40
2018-09-10T07:48:05.594Z,41.90
2018-09-10T07:50:53.052Z,41.70
2018-09-10T07:53:40.793Z,41.80
2018-09-10T07:57:23.315Z,40.90
2018-09-10T08:00:03.199Z,40.60
2018-09-10T08:02:33.741Z,40.10
2018-09-10T08:05:03.751Z,40.50
2018-09-10T08:07:33.733Z,41.00
2018-09-10T08:10:09.903Z,39.40
2018-09-10T08:12:39.972Z,41.10
2018-09-10T08:15:10.046Z,40.30
2018-09-10T08:17:40.396Z,39.00
2018-09-10T08:20:10.479Z,38.80
2018-09-10T08:22:40.529Z,39.10
2018-09-10T08:25:10.549Z,38.30
2018-09-10T08:27:40.511Z,38.30
2018-09-10T08:30:10.540Z,38.30
2018-09-10T08:32:40.491Z,38.30
2018-09-10T08:35:10.694Z,38.50
2018-09-10T08:37:40.751Z,37.60
2018-09-10T08:40:10.839Z,38.70
2018-09-10T08:42:40.892Z,38.10
2018-09-10T08:45:10.911Z,38.10
2018-09-10T08:47:40.930Z,37.00
2018-09-10T08:50:10.991Z,37.40
2018-09-10T08:52:41.208Z,37.10
2018-09-10T08:55:11.375Z,36.80
2018-09-10T08:57:41.308Z,36.20
2018-09-10T09:00:11.350Z,34.80
2018-09-10T09:02:41.477Z,35.00
2018-09-10T09:05:11.446Z,34.60
2018-09-10T09:07:41.519Z,34.10
2018-09-10T09:10:11.500Z,33.70
2018-09-10T09:12:41.563Z,33.60
2018-09-10T09:15:11.592Z,32.80
2018-09-10T09:17:41.543Z,31.80
2018-09-10T09:20:11.539Z,31.70
2018-09-10T09:22:41.609Z,31.90
2018-09-10T09:25:11.617Z,32.10
2018-09-10T09:27:41.555Z,31.90
2018-09-10T09:30:11.580Z,31.50
2018-09-10T09:32:41.630Z,31.90
2018-09-10T09:35:11.632Z,31.60
2018-09-10T09:37:47.114Z,32.40
2018-09-10T09:40:22.589Z,32.80
2018-09-10T09:42:58.025Z,31.80
2018-09-10T09:45:33.251Z,32.40
2018-09-10T09:48:03.296Z,31.90
2018-09-10T09:50:33.313Z,32.40
2018-09-10T09:53:03.424Z,32.20
2018-09-10T09:55:33.465Z,33.40
2018-09-10T09:58:03.441Z,32.50
2018-09-10T10:00:39.169Z,32.90
2018-09-10T10:03:15.119Z,32.30
2018-09-10T10:05:45.385Z,31.10
2018-09-10T10:08:15.349Z,30.90
2018-09-10T10:10:45.614Z,30.90
2018-09-10T10:13:15.722Z,31.00
2018-09-10T10:15:45.687Z,30.90
2018-09-10T10:18:15.755Z,31.00
2018-09-10T10:20:45.763Z,31.00
2018-09-10T10:23:15.762Z,31.10
2018-09-10T10:25:45.776Z,32.60
2018-09-10T10:28:15.801Z,31.30
2018-09-10T10:30:45.781Z,31.30
2018-09-10T10:33:15.759Z,31.50
2018-09-10T10:35:45.817Z,30.70
2018-09-10T10:38:15.904Z,30.40
2018-09-10T10:40:45.889Z,31.40
2018-09-10T10:43:16.022Z,30.40
2018-09-10T10:45:46.089Z,29.90
2018-09-10T10:48:16.169Z,29.90
2018-09-10T10:50:46.127Z,29.60
2018-09-10T10:53:16.188Z,29.00
2018-09-10T10:55:46.269Z,29.80
2018-09-10T10:58:16.248Z,29.30
2018-09-10T11:00:46.298Z,29.60
2018-09-10T11:03:16.305Z,29.00
2018-09-10T11:05:46.246Z,28.80
2018-09-10T11:08:16.263Z,28.80
2018-09-10T11:10:46.184Z,28.80
2018-09-10T11:13:16.249Z,29.00
2018-09-10T11:15:46.351Z,29.20
2018-09-10T11:18:16.341Z,29.10
2018-09-10T11:20:46.292Z,29.00
2018-09-10T11:23:16.243Z,28.00
2018-09-10T11:25:53.051Z,27.50
2018-09-10T11:28:23.240Z,27.50
2018-09-10T11:30:53.544Z,27.80
2018-09-10T11:33:23.534Z,28.10
2018-09-10T11:35:53.641Z,28.20
2018-09-10T11:38:23.651Z,27.40
2018-09-10T11:40:53.688Z,28.00
2018-09-10T11:43:23.617Z,28.20
2018-09-10T11:45:53.566Z,28.60
2018-09-10T11:48:23.644Z,27.40
2018-09-10T11:50:53.687Z,27.50
2018-09-10T11:53:23.791Z,27.20
2018-09-10T11:55:53.821Z,27.40
2018-09-10T11:58:23.802Z,27.70
2018-09-10T12:00:53.814Z,27.40
2018-09-10T12:03:23.823Z,27.10
2018-09-10T12:05:53.889Z,27.50
2018-09-10T12:08:23.946Z,27.30
2018-09-10T12:10:54.002Z,27.20
2018-09-10T12:13:24.081Z,27.30
2018-09-10T12:15:54.056Z,26.10
2018-09-10T12:18:24.047Z,25.80
2018-09-10T12:20:54.113Z,26.10
2018-09-10T12:23:24.086Z,26.00
2018-09-10T12:25:54.136Z,26.00
2018-09-10T12:28:24.127Z,26.30
2018-09-10T12:30:54.115Z,26.00
2018-09-10T12:33:24.180Z,26.20
2018-09-10T12:35:54.211Z,26.50
2018-09-10T12:38:24.146Z,25.60
2018-09-10T12:40:54.127Z,26.10
2018-09-10T12:43:24.137Z,26.00
2018-09-10T12:45:54.066Z,26.30
2018-09-10T12:48:24.046Z,26.70
2018-09-10T12:50:54.106Z,26.60
2018-09-10T12:53:24.150Z,26.60
2018-09-10T12:55:54.380Z,26.80
2018-09-10T12:58:24.338Z,26.80
2018-09-10T13:00:54.528Z,27.30
2018-09-10T13:03:24.545Z,26.10
2018-09-10T13:05:54.508Z,25.90
2018-09-10T13:08:24.504Z,26.00
2018-09-10T13:10:54.495Z,25.80
2018-09-10T13:13:24.446Z,26.60
2018-09-10T13:15:54.399Z,26.30
2018-09-10T13:18:24.627Z,26.30
2018-09-10T13:20:54.696Z,27.10
2018-09-10T13:23:24.649Z,26.30
2018-09-10T13:25:54.601Z,26.40
2018-09-10T13:28:24.901Z,26.10
2018-09-10T13:30:54.844Z,26.40
2018-09-10T13:33:24.862Z,26.70
2018-09-10T13:35:54.974Z,26.30
2018-09-10T13:38:24.902Z,26.00
2018-09-10T13:40:54.854Z,26.50
2018-09-10T13:43:24.798Z,26.60
2018-09-10T13:45:54.755Z,26.20
2018-09-10T13:48:24.683Z,26.40
2018-09-10T13:50:54.734Z,26.80
2018-09-10T13:53:24.768Z,26.70
2018-09-10T13:55:54.686Z,26.70
2018-09-10T13:58:24.663Z,26.80
2018-09-10T14:00:54.650Z,26.80
2018-09-10T14:03:24.591Z,27.10
2018-09-10T14:05:54.570Z,27.50
2018-09-10T14:08:24.523Z,27.60
2018-09-10T14:10:54.464Z,27.10
2018-09-10T14:13:24.414Z,27.60
2018-09-10T14:15:54.411Z,27.80
2018-09-10T14:18:24.484Z,27.10
2018-09-10T14:20:54.638Z,26.80
2018-09-10T14:23:24.624Z,26.80
2018-09-10T14:25:54.677Z,26.90
2018-09-10T14:28:24.731Z,27.50
2018-09-10T14:30:54.662Z,26.90
2018-09-10T14:33:24.601Z,27.70
2018-09-10T14:35:54.580Z,27.50
2018-09-10T14:38:24.521Z,27.30
2018-09-10T14:40:55.572Z,27.20
2018-09-10T14:43:25.490Z,27.70
2018-09-10T14:45:55.449Z,27.40
2018-09-10T14:48:25.475Z,27.40
2018-09-10T14:50:55.384Z,27.90
2018-09-10T14:53:25.362Z,27.10
2018-09-10T14:55:55.339Z,27.40
2018-09-10T14:58:25.342Z,28.10
2018-09-10T15:00:55.307Z,28.20
2018-09-10T15:03:25.291Z,28.70
2018-09-10T15:05:55.314Z,28.70
2018-09-10T15:08:25.237Z,29.20
2018-09-10T15:10:55.131Z,29.00
2018-09-10T15:13:25.062Z,29.40
2018-09-10T15:15:55.134Z,29.50
2018-09-10T15:18:25.192Z,30.30
2018-09-10T15:20:55.034Z,30.70
2018-09-10T15:23:25.012Z,30.60
2018-09-10T15:25:55.030Z,31.50
2018-09-10T15:28:25.048Z,31.70
2018-09-10T15:30:55.007Z,31.80
2018-09-10T15:33:24.962Z,31.70
2018-09-10T15:35:54.931Z,32.30
2018-09-10T15:38:24.915Z,32.80
2018-09-10T15:40:54.816Z,33.40
2018-09-10T15:43:37.327Z,33.10
2018-09-10T15:46:07.478Z,33.30
2018-09-10T15:48:37.569Z,33.60
2018-09-10T15:51:07.593Z,34.70
2018-09-10T15:53:37.535Z,34.70
2018-09-10T15:56:07.578Z,34.70
2018-09-10T15:58:38.623Z,34.70
2018-09-10T16:01:08.588Z,34.80
2018-09-10T16:03:38.553Z,35.70
2018-09-10T16:06:08.543Z,35.60
2018-09-10T16:08:38.519Z,35.60
2018-09-10T16:11:08.599Z,35.60
2018-09-10T16:13:38.592Z,35.60
2018-09-10T16:16:08.522Z,36.20
2018-09-10T16:18:38.564Z,35.70
2018-09-10T16:21:08.592Z,36.20
2018-09-10T16:23:38.904Z,36.90
2018-09-10T16:26:08.909Z,36.40
2018-09-10T16:28:38.938Z,36.00
2018-09-10T16:31:08.951Z,36.50
2018-09-10T16:33:38.926Z,36.10
2018-09-10T16:36:08.919Z,36.90
2018-09-10T16:38:38.902Z,36.70
2018-09-10T16:41:08.887Z,36.80
2018-09-10T16:43:39.270Z,37.00
2018-09-10T16:46:09.263Z,37.10
2018-09-10T16:48:39.206Z,37.10
2018-09-10T16:51:09.219Z,37.40
2018-09-10T16:53:39.381Z,37.60
2018-09-10T16:56:09.363Z,38.00
2018-09-10T16:58:39.497Z,37.90
2018-09-10T17:01:09.582Z,38.00
2018-09-10T17:03:39.623Z,37.90
2018-09-10T17:06:09.678Z,38.40
2018-09-10T17:08:39.775Z,38.30
2018-09-10T17:11:09.753Z,38.30
2018-09-10T17:13:39.678Z,38.30
2018-09-10T17:16:09.782Z,38.20
2018-09-10T17:18:39.718Z,38.50
2018-09-10T17:21:09.774Z,38.10
2018-09-10T17:23:39.791Z,38.60
2018-09-10T17:26:10.047Z,38.80
2018-09-10T17:28:40.066Z,38.90
2018-09-10T17:31:10.119Z,38.50
2018-09-10T17:33:40.158Z,37.90
2018-09-10T17:36:10.234Z,38.00
2018-09-10T17:38:40.507Z,37.90
2018-09-10T17:41:10.521Z,38.00
2018-09-10T17:43:40.500Z,38.00
2018-09-10T17:46:10.521Z,37.90
2018-09-10T17:48:40.581Z,37.90
2018-09-10T17:51:10.643Z,38.00
2018-09-10T17:53:40.601Z,38.00
2018-09-10T17:56:10.587Z,38.00
2018-09-10T17:58:40.602Z,38.00
2018-09-10T18:01:10.610Z,37.90
2018-09-10T18:03:40.631Z,37.90
2018-09-10T18:06:10.576Z,37.90
2018-09-10T18:08:40.602Z,37.90
2018-09-10T18:11:10.715Z,37.80
2018-09-10T18:13:40.687Z,37.80
2018-09-10T18:16:10.699Z,37.80
2018-09-10T18:18:40.767Z,37.70
2018-09-10T18:21:10.801Z,38.40
2018-09-10T18:23:40.788Z,38.40
2018-09-10T18:26:10.804Z,37.70
2018-09-10T18:28:40.932Z,37.70
2018-09-10T18:31:11.026Z,37.60
2018-09-10T18:33:41.075Z,37.70
2018-09-10T18:36:11.068Z,37.60
2018-09-10T18:38:41.105Z,37.60
2018-09-10T18:41:11.122Z,37.50
2018-09-10T18:43:41.159Z,37.50
2018-09-10T18:46:11.235Z,37.90
2018-09-10T18:48:41.314Z,38.10
2018-09-10T18:51:11.533Z,38.00
2018-09-10T18:53:41.503Z,38.10
2018-09-10T18:56:11.512Z,38.30
2018-09-10T18:58:41.495Z,38.80
2018-09-10T19:01:11.640Z,38.60
2018-09-10T19:03:41.466Z,38.70
2018-09-10T19:06:11.438Z,38.80
2018-09-10T19:08:41.403Z,38.90
2018-09-10T19:11:11.363Z,39.30
2018-09-10T19:13:41.366Z,39.10
2018-09-10T19:16:11.420Z,39.10
2018-09-10T19:18:41.872Z,38.90
2018-09-10T19:21:11.983Z,38.90
2018-09-10T19:23:42.014Z,38.70
2018-09-10T19:26:11.999Z,38.80
2018-09-10T19:28:41.934Z,38.90
2018-09-10T19:31:11.956Z,38.60
2018-09-10T19:33:42.139Z,38.80
2018-09-10T19:36:12.165Z,38.80
2018-09-10T19:38:42.166Z,38.70
2018-09-10T19:41:12.096Z,38.70
2018-09-10T19:43:42.143Z,38.90
2018-09-10T19:46:12.133Z,38.90
2018-09-10T19:48:42.054Z,39.10
2018-09-10T19:51:12.071Z,39.20
2018-09-10T19:53:42.085Z,39.40
2018-09-10T19:56:12.053Z,39.60
2018-09-10T19:58:42.124Z,39.70
2018-09-10T20:01:12.107Z,40.00
2018-09-10T20:06:16.536Z,40.00
2018-09-10T20:08:46.885Z,40.30
2018-09-10T20:11:16.897Z,40.60
2018-09-10T20:13:46.962Z,40.60
2018-09-10T20:16:17.020Z,40.60
2018-09-10T20:18:47.143Z,40.70
2018-09-10T20:21:17.351Z,41.00
2018-09-10T20:23:47.428Z,41.50
2018-09-10T20:26:17.496Z,41.40
2018-09-10T20:28:47.553Z,41.40
2018-09-10T20:31:17.691Z,42.10
2018-09-10T20:33:53.117Z,42.60
2018-09-10T20:36:23.104Z,42.50
2018-09-10T20:38:53.205Z,42.50
2018-09-10T20:41:23.214Z,43.00
2018-09-10T20:43:53.203Z,43.30
2018-09-10T20:46:23.261Z,44.20
2018-09-10T20:48:53.265Z,43.60
2018-09-10T20:51:23.341Z,43.80
2018-09-10T20:53:53.309Z,44.00
2018-09-10T20:56:23.990Z,43.70
2018-09-10T20:58:54.699Z,44.10
2018-09-10T21:01:24.919Z,44.80
2018-09-10T21:03:55.165Z,44.40
2018-09-10T21:06:26.792Z,44.70
2018-09-10T21:08:56.706Z,44.80
2018-09-10T21:11:27.766Z,44.70
2018-09-10T21:13:58.363Z,44.90
2018-09-10T21:16:28.433Z,45.40
2018-09-10T21:19:00.404Z,45.50
2018-09-10T21:21:30.451Z,45.60
2018-09-10T21:24:00.488Z,45.50
2018-09-10T21:26:30.660Z,46.10
2018-09-10T21:29:00.652Z,45.20
2018-09-10T21:31:30.566Z,45.50
2018-09-10T21:34:00.542Z,45.50
2018-09-10T21:36:30.636Z,45.40
2018-09-10T21:39:00.651Z,45.40
2018-09-10T21:41:30.679Z,45.60
2018-09-10T21:44:00.705Z,45.80
2018-09-10T21:46:30.801Z,45.30
2018-09-10T21:49:00.881Z,45.30
2018-09-10T21:51:30.915Z,45.70
2018-09-10T21:54:00.978Z,46.10
2018-09-10T21:56:30.958Z,45.80
2018-09-10T21:59:00.994Z,45.10
2018-09-10T22:01:30.950Z,45.10
2018-09-10T22:04:00.967Z,45.20
2018-09-10T22:06:30.977Z,45.20
2018-09-10T22:09:00.931Z,45.10
2018-09-10T22:11:31.113Z,45.20
2018-09-10T22:14:01.169Z,45.20
2018-09-10T22:16:31.128Z,45.20
2018-09-10T22:19:01.282Z,45.30
2018-09-10T22:21:31.222Z,45.90
2018-09-10T22:24:01.204Z,45.10
2018-09-10T22:26:31.288Z,45.80
2018-09-10T22:29:01.276Z,46.00
2018-09-10T22:31:31.328Z,45.80
2018-09-10T22:34:01.336Z,46.40
2018-09-10T22:36:31.423Z,46.30
2018-09-10T22:39:01.379Z,46.30
2018-09-10T22:41:31.347Z,46.30
2018-09-10T22:44:01.351Z,46.30
2018-09-10T22:46:31.255Z,46.50
2018-09-10T22:49:01.259Z,46.40
2018-09-10T22:51:31.248Z,46.50
2018-09-10T22:54:01.362Z,46.80
2018-09-10T22:56:31.388Z,46.50
2018-09-10T22:59:01.364Z,47.00
2018-09-10T23:01:31.349Z,46.60
2018-09-10T23:04:01.347Z,46.40
2018-09-10T23:06:31.403Z,46.60
2018-09-10T23:09:01.427Z,46.40
2018-09-10T23:11:31.438Z,46.40
2018-09-10T23:14:01.456Z,46.40
2018-09-10T23:16:31.547Z,46.50
2018-09-10T23:19:01.576Z,46.50
2018-09-10T23:21:31.506Z,46.40
2018-09-10T23:24:01.513Z,46.40
2018-09-10T23:26:31.464Z,46.40
2018-09-10T23:29:01.431Z,46.60
2018-09-10T23:31:31.431Z,46.70
2018-09-10T23:34:01.417Z,46.70
2018-09-10T23:36:31.408Z,46.80
2018-09-10T23:39:01.373Z,47.00
2018-09-10T23:41:31.395Z,46.90
2018-09-10T23:44:01.421Z,47.10
2018-09-10T23:46:31.366Z,47.20
2018-09-10T23:49:01.364Z,47.50
2018-09-10T23:51:31.395Z,47.50
2018-09-10T23:54:01.376Z,47.70
2018-09-10T23:56:31.471Z,47.70
2018-09-10T23:59:01.450Z,47.90
